createdAt,value
2023-04-16T00:02:54.815Z,2.08
2023-04-16T00:06:00.983Z,4.00
2023-04-16T00:09:06.871Z,5.00
2023-04-16T00:12:12.993Z,3.80
2023-04-16T00:15:18.601Z,4.07
2023-04-16T00:18:24.111Z,2.83
2023-04-16T00:21:29.815Z,4.43
2023-04-16T00:24:36.031Z,3.10
2023-04-16T00:27:41.234Z,2.53
2023-04-16T00:30:46.655Z,5.72
2023-04-16T00:33:52.191Z,3.58
2023-04-16T00:36:58.036Z,4.75
2023-04-16T00:40:03.591Z,3.97
2023-04-16T00:43:09.562Z,6.80
2023-04-16T00:46:16.778Z,3.70
2023-04-16T00:49:22.515Z,5.00
2023-04-16T00:52:29.654Z,6.18
2023-04-16T00:55:35.325Z,2.38
2023-04-16T00:58:41.357Z,6.72
2023-04-16T01:01:46.911Z,3.75
2023-04-16T01:04:52.993Z,1.92
2023-04-16T01:08:01.616Z,5.78
2023-04-16T01:11:07.100Z,6.38
2023-04-16T01:14:12.969Z,7.82
2023-04-16T01:17:18.727Z,3.80
2023-04-16T01:20:24.800Z,3.17
2023-04-16T01:23:30.538Z,3.75
2023-04-16T01:26:35.901Z,3.30
2023-04-16T01:29:41.480Z,2.63
2023-04-16T01:32:48.337Z,3.88
2023-04-16T01:35:54.363Z,1.77
2023-04-16T01:39:00.158Z,1.95
2023-04-16T01:42:05.802Z,5.05
2023-04-16T01:45:11.416Z,6.32
2023-04-16T01:48:17.039Z,2.78
2023-04-16T01:51:23.480Z,4.72
2023-04-16T01:54:29.478Z,5.25
2023-04-16T01:57:34.937Z,2.83
2023-04-16T02:00:41.839Z,2.13
2023-04-16T02:03:48.452Z,2.25
2023-04-16T02:06:54.126Z,4.03
2023-04-16T02:09:59.703Z,4.45
2023-04-16T02:13:06.273Z,4.18
2023-04-16T02:16:11.873Z,4.93
2023-04-16T02:19:32.236Z,2.78
2023-04-16T02:22:38.180Z,3.47
2023-04-16T02:25:47.988Z,5.18
2023-04-16T02:28:54.931Z,6.68
2023-04-16T02:32:06.036Z,3.47
2023-04-16T02:35:13.443Z,3.75
2023-04-16T02:38:18.732Z,4.30
2023-04-16T02:41:24.585Z,5.45
2023-04-16T02:44:30.115Z,6.70
2023-04-16T02:47:35.508Z,3.63
2023-04-16T02:50:41.698Z,3.22
2023-04-16T02:53:47.714Z,3.05
2023-04-16T02:56:53.359Z,3.63
2023-04-16T02:59:59.137Z,4.03
2023-04-16T03:03:04.677Z,4.38
2023-04-16T03:06:11.162Z,4.13
2023-04-16T03:09:16.492Z,5.50
2023-04-16T03:12:22.091Z,6.80
2023-04-16T03:15:27.629Z,5.15
2023-04-16T03:18:33.758Z,3.85
2023-04-16T03:21:39.516Z,4.00
2023-04-16T03:24:45.167Z,4.55
2023-04-16T03:27:51.458Z,3.63
2023-04-16T03:30:57.632Z,5.45
2023-04-16T03:34:02.771Z,15.35
2023-04-16T03:37:12.183Z,3.95
2023-04-16T03:40:18.132Z,6.15
2023-04-16T03:43:23.760Z,6.35
2023-04-16T03:46:29.802Z,5.18
2023-04-16T03:49:36.086Z,4.53
2023-04-16T03:52:41.664Z,3.38
2023-04-16T03:55:53.993Z,6.25
2023-04-16T03:59:00.883Z,5.65
2023-04-16T04:02:06.805Z,7.18
2023-04-16T04:05:13.140Z,2.75
2023-04-16T04:08:19.901Z,4.47
2023-04-16T04:11:25.636Z,7.40
2023-04-16T04:14:32.831Z,8.65
2023-04-16T04:17:38.727Z,5.65
2023-04-16T04:20:45.339Z,5.03
2023-04-16T04:23:56.046Z,4.20
2023-04-16T04:27:02.658Z,5.25
2023-04-16T04:30:08.878Z,9.80
2023-04-16T04:33:14.814Z,7.57
2023-04-16T04:36:22.032Z,5.63
2023-04-16T04:39:27.444Z,6.03
2023-04-16T04:42:33.292Z,8.48
2023-04-16T04:45:38.860Z,4.72
2023-04-16T04:48:44.592Z,9.30
2023-04-16T04:51:50.078Z,4.97
2023-04-16T04:54:55.722Z,6.22
2023-04-16T04:58:01.294Z,6.20
2023-04-16T05:01:07.377Z,6.20
2023-04-16T05:04:13.269Z,5.40
2023-04-16T05:07:18.867Z,5.50
2023-04-16T05:10:24.069Z,7.85
2023-04-16T05:13:29.270Z,8.20
2023-04-16T05:16:38.337Z,4.90
2023-04-16T05:19:43.846Z,7.18
2023-04-16T05:22:49.852Z,4.25
2023-04-16T05:25:55.690Z,7.88
2023-04-16T05:29:01.536Z,5.53
2023-04-16T05:32:07.030Z,4.85
2023-04-16T05:35:12.571Z,6.05
2023-04-16T05:38:18.627Z,7.30
2023-04-16T05:41:23.912Z,5.85
2023-04-16T05:44:29.656Z,8.25
2023-04-16T05:47:35.103Z,7.72
2023-04-16T05:50:40.571Z,10.07
2023-04-16T05:53:46.282Z,5.20
2023-04-16T05:56:51.949Z,7.60
2023-04-16T05:59:57.562Z,6.80
2023-04-16T06:03:03.181Z,8.82
2023-04-16T06:06:09.377Z,8.35
2023-04-16T06:09:15.120Z,10.02
2023-04-16T06:12:20.289Z,10.05
2023-04-16T06:15:25.868Z,12.50
2023-04-16T06:18:31.496Z,6.93
2023-04-16T06:21:38.268Z,8.10
2023-04-16T06:24:44.045Z,8.05
2023-04-16T06:27:49.787Z,7.95
2023-04-16T06:30:55.525Z,8.30
2023-04-16T06:34:01.014Z,7.95
2023-04-16T06:37:09.106Z,9.40
2023-04-16T06:40:16.253Z,8.93
2023-04-16T06:43:21.885Z,11.95
2023-04-16T06:46:26.882Z,9.55
2023-04-16T06:49:32.132Z,10.68
2023-04-16T06:52:37.587Z,8.90
2023-04-16T06:55:43.349Z,8.63
2023-04-16T06:58:49.076Z,7.80
2023-04-16T07:01:54.759Z,11.75
2023-04-16T07:05:00.309Z,12.48
2023-04-16T07:08:05.989Z,10.57
2023-04-16T07:11:11.900Z,13.52
2023-04-16T07:14:17.340Z,8.88
2023-04-16T07:17:22.975Z,8.88
2023-04-16T07:20:28.850Z,13.32
2023-04-16T07:23:35.018Z,12.43
2023-04-16T07:26:40.708Z,12.35
2023-04-16T07:29:46.359Z,14.02
2023-04-16T07:32:52.107Z,11.77
2023-04-16T07:35:57.394Z,13.20
2023-04-16T07:39:02.628Z,13.90
2023-04-16T07:42:08.126Z,10.27
2023-04-16T07:45:13.572Z,12.02
2023-04-16T07:48:19.317Z,10.13
2023-04-16T07:51:24.878Z,10.45
2023-04-16T07:54:30.745Z,8.88
2023-04-16T07:57:36.180Z,8.75
2023-04-16T08:00:41.889Z,11.38
2023-04-16T08:03:47.407Z,8.63
2023-04-16T08:06:53.697Z,11.23
2023-04-16T08:09:59.324Z,7.25
2023-04-16T08:13:04.999Z,9.15
2023-04-16T08:16:10.748Z,8.80
2023-04-16T08:19:16.402Z,8.82
2023-04-16T08:22:22.610Z,10.23
2023-04-16T08:25:28.064Z,9.02
2023-04-16T08:28:33.168Z,11.95
2023-04-16T08:31:38.694Z,8.70
2023-04-16T08:34:44.390Z,8.95
2023-04-16T08:37:49.976Z,10.50
2023-04-16T08:40:58.835Z,11.90
2023-04-16T08:44:14.345Z,13.73
2023-04-16T08:47:22.799Z,8.27
2023-04-16T08:50:28.676Z,9.05
2023-04-16T08:53:42.508Z,12.75
2023-04-16T08:56:49.318Z,8.27
2023-04-16T08:59:57.962Z,9.48
2023-04-16T09:03:05.166Z,8.63
2023-04-16T09:06:11.344Z,7.68
2023-04-16T09:09:18.580Z,10.45
2023-04-16T09:12:26.916Z,10.32
2023-04-16T09:15:35.221Z,8.93
2023-04-16T09:18:41.695Z,9.40
2023-04-16T09:21:48.504Z,7.63
2023-04-16T09:24:54.322Z,8.30
2023-04-16T09:27:59.688Z,6.03
2023-04-16T09:31:16.457Z,5.60
2023-04-16T09:34:21.772Z,8.95
2023-04-16T09:37:31.773Z,9.88
2023-04-16T09:40:37.984Z,10.98
2023-04-16T09:43:58.466Z,6.43
2023-04-16T09:47:09.447Z,11.73
2023-04-16T09:50:20.830Z,7.38
2023-04-16T09:53:31.643Z,6.45
2023-04-16T09:56:46.010Z,8.88
2023-04-16T09:59:59.229Z,4.60
2023-04-16T10:03:08.705Z,11.50
2023-04-16T10:06:20.868Z,5.97
2023-04-16T10:09:26.521Z,8.52
2023-04-16T10:12:33.487Z,9.43
2023-04-16T10:15:39.619Z,5.18
2023-04-16T10:18:47.124Z,6.88
2023-04-16T10:21:53.169Z,8.40
2023-04-16T10:24:59.368Z,6.38
2023-04-16T10:28:05.394Z,10.82
2023-04-16T10:31:11.224Z,6.72
2023-04-16T10:34:18.110Z,8.32
2023-04-16T10:37:31.662Z,4.80
2023-04-16T10:40:37.089Z,6.03
2023-04-16T10:43:47.770Z,5.38
2023-04-16T10:46:55.528Z,10.07
2023-04-16T10:50:01.345Z,6.85
2023-04-16T10:53:21.327Z,4.47
2023-04-16T10:56:31.954Z,7.68
2023-04-16T10:59:40.034Z,6.18
2023-04-16T11:02:45.924Z,5.72
2023-04-16T11:05:51.570Z,5.13
2023-04-16T11:08:57.127Z,5.60
2023-04-16T11:12:08.504Z,5.15
2023-04-16T11:15:19.833Z,5.18
2023-04-16T11:21:32.894Z,7.82
2023-04-16T11:24:40.641Z,5.50
2023-04-16T11:27:46.217Z,8.30
2023-04-16T11:30:51.686Z,6.88
2023-04-16T11:33:57.897Z,4.00
2023-04-16T11:37:03.688Z,2.47
2023-04-16T11:40:10.565Z,3.38
2023-04-16T11:43:17.259Z,6.53
2023-04-16T11:46:27.666Z,5.55
2023-04-16T11:49:33.715Z,5.72
2023-04-16T11:52:39.265Z,4.50
2023-04-16T11:55:47.216Z,3.40
2023-04-16T11:59:13.659Z,3.72
2023-04-16T12:02:38.737Z,4.38
2023-04-16T12:05:43.963Z,3.78
2023-04-16T12:08:49.225Z,3.28
2023-04-16T12:11:54.654Z,3.33
2023-04-16T12:15:04.349Z,6.25
2023-04-16T12:18:09.816Z,7.85
2023-04-16T12:21:15.320Z,7.47
2023-04-16T12:24:21.360Z,5.32
2023-04-16T12:27:28.824Z,3.13
2023-04-16T12:30:34.830Z,5.75
2023-04-16T12:33:40.199Z,7.35
2023-04-16T12:36:47.611Z,5.82
2023-04-16T12:39:52.935Z,4.38
2023-04-16T12:42:58.173Z,5.90
2023-04-16T12:46:04.319Z,5.13
2023-04-16T12:49:11.566Z,4.45
2023-04-16T12:52:17.597Z,3.75
2023-04-16T12:55:23.026Z,5.90
2023-04-16T12:58:28.135Z,3.60
2023-04-16T13:01:36.310Z,4.63
2023-04-16T13:04:41.556Z,5.03
2023-04-16T13:07:47.666Z,5.68
2023-04-16T13:10:53.483Z,4.10
2023-04-16T13:13:59.017Z,3.15
2023-04-16T13:17:04.340Z,4.13
2023-04-16T13:20:10.457Z,4.40
2023-04-16T13:23:16.217Z,2.92
2023-04-16T13:26:22.324Z,5.25
2023-04-16T13:29:28.613Z,4.75
2023-04-16T13:32:35.112Z,5.45
2023-04-16T13:35:40.844Z,3.67
2023-04-16T13:38:46.587Z,6.55
2023-04-16T13:41:51.744Z,2.75
2023-04-16T13:44:58.457Z,3.97
2023-04-16T13:48:04.205Z,4.25
2023-04-16T13:51:10.063Z,8.35
2023-04-16T13:54:15.735Z,5.63
2023-04-16T13:57:21.325Z,5.82
2023-04-16T14:00:27.786Z,5.95
2023-04-16T14:03:38.900Z,3.42
2023-04-16T14:09:50.421Z,4.47
2023-04-16T14:12:56.271Z,5.10
2023-04-16T14:16:02.776Z,4.20
2023-04-16T14:19:08.608Z,5.85
2023-04-16T14:22:18.121Z,3.42
2023-04-16T14:25:24.038Z,3.85
2023-04-16T14:28:29.591Z,4.90
2023-04-16T14:31:35.060Z,4.35
2023-04-16T14:34:40.661Z,2.42
2023-04-16T14:37:46.996Z,2.85
2023-04-16T14:40:52.649Z,4.47
2023-04-16T14:43:59.764Z,6.65
2023-04-16T14:47:05.425Z,4.55
2023-04-16T14:50:12.348Z,7.05
2023-04-16T14:53:19.215Z,3.95
2023-04-16T14:56:24.630Z,2.75
2023-04-16T14:59:30.735Z,3.83
2023-04-16T15:02:37.070Z,4.82
2023-04-16T15:05:42.769Z,2.63
2023-04-16T15:08:48.157Z,3.75
2023-04-16T15:11:54.861Z,2.50
2023-04-16T15:15:00.647Z,1.50
2023-04-16T15:18:06.597Z,5.30
2023-04-16T15:21:12.750Z,1.80
2023-04-16T15:24:18.396Z,4.60
2023-04-16T15:27:24.357Z,2.33
2023-04-16T15:30:31.479Z,2.45
2023-04-16T15:33:37.334Z,2.13
2023-04-16T15:36:43.531Z,3.25
2023-04-16T15:39:49.027Z,1.52
2023-04-16T15:42:56.326Z,3.47
2023-04-16T15:46:03.317Z,0.73
2023-04-16T15:49:09.428Z,6.28
2023-04-16T15:52:14.966Z,1.63
2023-04-16T15:55:21.346Z,2.40
2023-04-16T15:58:26.447Z,3.15
2023-04-16T16:01:32.217Z,2.08
2023-04-16T16:04:46.856Z,3.38
2023-04-16T16:07:53.054Z,3.67
2023-04-16T16:10:59.464Z,2.38
2023-04-16T16:14:05.022Z,1.08
2023-04-16T16:17:11.918Z,2.67
2023-04-16T16:20:17.764Z,0.70
2023-04-16T16:23:23.596Z,2.40
2023-04-16T16:26:30.111Z,2.05
2023-04-16T16:29:35.951Z,5.57
2023-04-16T16:32:44.121Z,2.33
2023-04-16T16:35:49.793Z,4.93
2023-04-16T16:38:55.834Z,2.35
2023-04-16T16:42:01.488Z,1.80
2023-04-16T16:45:06.974Z,1.40
2023-04-16T16:48:12.682Z,4.82
2023-04-16T16:51:19.340Z,2.55
2023-04-16T16:54:25.248Z,0.60
2023-04-16T16:57:30.948Z,1.55
2023-04-16T17:00:36.544Z,1.42
2023-04-16T17:03:41.941Z,2.95
2023-04-16T17:06:47.126Z,3.00
2023-04-16T17:09:52.521Z,1.05
2023-04-16T17:12:57.919Z,5.85
2023-04-16T17:16:03.530Z,1.38
2023-04-16T17:19:09.440Z,2.17
2023-04-16T17:22:15.365Z,3.17
2023-04-16T17:25:20.959Z,1.10
2023-04-16T17:28:26.613Z,3.40
2023-04-16T17:31:32.333Z,3.75
2023-04-16T17:34:37.766Z,1.30
2023-04-16T17:37:43.609Z,5.15
2023-04-16T17:40:48.860Z,4.55
2023-04-16T17:43:54.156Z,2.28
2023-04-16T17:46:59.694Z,3.95
2023-04-16T17:50:05.748Z,1.70
2023-04-16T17:53:11.490Z,4.68
2023-04-16T17:56:16.640Z,4.53
2023-04-16T17:59:22.185Z,4.57
2023-04-16T18:02:27.805Z,8.13
2023-04-16T18:05:33.455Z,3.60
2023-04-16T18:08:38.803Z,4.18
2023-04-16T18:11:44.296Z,3.90
2023-04-16T18:14:49.763Z,3.42
2023-04-16T18:17:55.201Z,4.72
2023-04-16T18:21:00.366Z,2.30
2023-04-16T18:24:05.812Z,1.73
2023-04-16T18:27:11.967Z,2.08
2023-04-16T18:30:23.454Z,4.55
2023-04-16T18:36:40.563Z,3.60
2023-04-16T18:39:46.060Z,7.10
2023-04-16T18:42:51.295Z,3.72
2023-04-16T18:45:56.760Z,4.05
2023-04-16T18:49:02.171Z,5.03
2023-04-16T18:52:07.502Z,6.60
2023-04-16T18:55:12.821Z,4.80
2023-04-16T18:58:18.308Z,4.18
2023-04-16T19:01:23.642Z,3.28
2023-04-16T19:04:28.932Z,4.97
2023-04-16T19:07:35.410Z,4.65
2023-04-16T19:10:40.404Z,4.22
2023-04-16T19:13:45.680Z,2.40
2023-04-16T19:16:51.112Z,2.53
2023-04-16T19:19:56.578Z,2.38
2023-04-16T19:23:02.421Z,1.92
2023-04-16T19:26:07.669Z,3.90
2023-04-16T19:29:13.407Z,2.15
2023-04-16T19:32:18.431Z,2.00
2023-04-16T19:35:24.194Z,4.20
2023-04-16T19:38:31.817Z,5.63
2023-04-16T19:41:37.514Z,5.50
2023-04-16T19:44:42.673Z,3.75
2023-04-16T19:47:51.459Z,2.70
2023-04-16T19:50:56.507Z,4.45
2023-04-16T19:54:02.182Z,3.83
2023-04-16T19:57:07.841Z,2.95
2023-04-16T20:00:14.599Z,3.95
2023-04-16T20:03:20.591Z,7.18
2023-04-16T20:06:26.577Z,2.72
2023-04-16T20:09:31.791Z,2.22
2023-04-16T20:12:38.150Z,5.07
2023-04-16T20:15:43.466Z,2.58
2023-04-16T20:18:50.908Z,2.28
2023-04-16T20:21:56.422Z,2.92
2023-04-16T20:25:01.732Z,3.72
2023-04-16T20:28:07.294Z,3.40
2023-04-16T20:31:13.236Z,3.17
2023-04-16T20:34:18.664Z,6.97
2023-04-16T20:37:24.214Z,2.58
2023-04-16T20:40:32.929Z,9.07
2023-04-16T20:43:38.780Z,5.50
2023-04-16T20:46:44.530Z,5.55
2023-04-16T20:49:49.835Z,4.80
2023-04-16T20:52:55.269Z,3.20
2023-04-16T20:56:01.246Z,4.88
2023-04-16T20:59:06.485Z,6.15
2023-04-16T21:02:11.744Z,2.95
2023-04-16T21:05:16.907Z,2.58
2023-04-16T21:08:23.055Z,3.80
2023-04-16T21:11:33.411Z,5.78
2023-04-16T21:14:38.948Z,5.00
2023-04-16T21:17:44.297Z,5.72
2023-04-16T21:20:49.507Z,7.35
2023-04-16T21:23:54.785Z,9.38
2023-04-16T21:27:03.537Z,5.70
2023-04-16T21:30:09.755Z,4.15
2023-04-16T21:33:16.236Z,3.95
2023-04-16T21:36:21.834Z,8.23
2023-04-16T21:39:31.221Z,5.88
2023-04-16T21:42:43.051Z,7.47
2023-04-16T21:45:48.269Z,3.83
2023-04-16T21:48:53.949Z,3.53
2023-04-16T21:51:59.476Z,3.90
2023-04-16T21:55:05.225Z,9.18
2023-04-16T21:58:10.942Z,6.85
2023-04-16T22:01:17.176Z,5.88
2023-04-16T22:04:26.555Z,4.40
2023-04-16T22:07:31.922Z,5.50
2023-04-16T22:10:38.294Z,7.22
2023-04-16T22:13:43.750Z,4.72
2023-04-16T22:16:51.914Z,8.00
2023-04-16T22:20:00.688Z,6.80
2023-04-16T22:23:06.994Z,5.63
2023-04-16T22:26:13.126Z,4.63
2023-04-16T22:29:18.695Z,8.40
2023-04-16T22:32:24.119Z,8.55
2023-04-16T22:35:29.847Z,9.43
2023-04-16T22:38:34.991Z,8.00
2023-04-16T22:41:40.879Z,6.45
2023-04-16T22:44:46.593Z,7.18
2023-04-16T22:47:52.033Z,3.92
2023-04-16T22:50:57.710Z,4.28
2023-04-16T22:54:03.061Z,5.85
2023-04-16T22:57:08.657Z,5.25
2023-04-16T23:00:16.756Z,5.97
2023-04-16T23:03:22.352Z,5.75
2023-04-16T23:06:28.120Z,4.70
2023-04-16T23:09:34.381Z,4.55
2023-04-16T23:12:39.756Z,4.68
2023-04-16T23:15:47.499Z,5.93
2023-04-16T23:18:52.623Z,5.15
2023-04-16T23:21:58.300Z,5.70
2023-04-16T23:25:03.229Z,5.28
2023-04-16T23:28:08.524Z,4.75
2023-04-16T23:31:14.144Z,5.88
2023-04-16T23:34:19.724Z,5.65
2023-04-16T23:37:24.968Z,5.25
2023-04-16T23:40:30.796Z,5.13
2023-04-16T23:43:36.676Z,5.53
2023-04-16T23:46:42.324Z,7.53
2023-04-16T23:49:47.705Z,4.00
2023-04-16T23:52:53.116Z,5.18
2023-04-16T23:55:58.736Z,4.97
2023-04-16T23:59:04.353Z,7.65
